sensor_id;sensor_type;location;lat;lon;timestamp;P1;durP1;ratioP1;P2;durP2;ratioP2
78308;SDS011;67566;42.022;21.356;2023-04-21T00:02:25;13.80;;;10.63;;
78308;SDS011;67566;42.022;21.356;2023-04-21T00:04:51;10.82;;;8.77;;
78308;SDS011;67566;42.022;21.356;2023-04-21T00:07:17;14.52;;;10.45;;
78308;SDS011;67566;42.022;21.356;2023-04-21T00:09:44;11.82;;;8.88;;
78308;SDS011;67566;42.022;21.356;2023-04-21T00:12:10;10.73;;;8.52;;
78308;SDS011;67566;42.022;21.356;2023-04-21T00:14:35;12.15;;;8.43;;
78308;SDS011;67566;42.022;21.356;2023-04-21T00:17:01;10.30;;;8.40;;
78308;SDS011;67566;42.022;21.356;2023-04-21T00:19:26;15.90;;;11.20;;
78308;SDS011;67566;42.022;21.356;2023-04-21T00:21:53;16.50;;;12.98;;
78308;SDS011;67566;42.022;21.356;2023-04-21T00:24:22;15.35;;;11.57;;
78308;SDS011;67566;42.022;21.356;2023-04-21T00:26:49;17.40;;;11.50;;
78308;SDS011;67566;42.022;21.356;2023-04-21T00:29:14;15.93;;;10.57;;
78308;SDS011;67566;42.022;21.356;2023-04-21T00:31:40;12.18;;;9.93;;
78308;SDS011;67566;42.022;21.356;2023-04-21T00:34:05;16.88;;;10.65;;
78308;SDS011;67566;42.022;21.356;2023-04-21T00:36:31;15.48;;;10.57;;
78308;SDS011;67566;42.022;21.356;2023-04-21T00:38:56;11.57;;;9.70;;
78308;SDS011;67566;42.022;21.356;2023-04-21T00:41:22;13.20;;;9.13;;
78308;SDS011;67566;42.022;21.356;2023-04-21T00:46:39;13.93;;;9.63;;
78308;SDS011;67566;42.022;21.356;2023-04-21T00:49:07;14.85;;;10.23;;
78308;SDS011;67566;42.022;21.356;2023-04-21T00:51:33;13.50;;;9.30;;
78308;SDS011;67566;42.022;21.356;2023-04-21T00:54:03;12.15;;;10.05;;
78308;SDS011;67566;42.022;21.356;2023-04-21T00:56:30;13.27;;;9.98;;
78308;SDS011;67566;42.022;21.356;2023-04-21T00:58:57;10.82;;;8.43;;
78308;SDS011;67566;42.022;21.356;2023-04-21T01:01:24;10.82;;;7.78;;
78308;SDS011;67566;42.022;21.356;2023-04-21T01:03:50;11.75;;;8.75;;
78308;SDS011;67566;42.022;21.356;2023-04-21T01:06:16;15.93;;;11.52;;
78308;SDS011;67566;42.022;21.356;2023-04-21T01:08:44;19.50;;;13.00;;
78308;SDS011;67566;42.022;21.356;2023-04-21T01:11:11;23.23;;;13.73;;
78308;SDS011;67566;42.022;21.356;2023-04-21T01:13:37;17.70;;;13.20;;
78308;SDS011;67566;42.022;21.356;2023-04-21T01:16:04;18.20;;;13.55;;
78308;SDS011;67566;42.022;21.356;2023-04-21T01:18:30;21.58;;;14.10;;
78308;SDS011;67566;42.022;21.356;2023-04-21T01:20:55;15.93;;;11.30;;
78308;SDS011;67566;42.022;21.356;2023-04-21T01:23:22;16.13;;;10.52;;
78308;SDS011;67566;42.022;21.356;2023-04-21T01:25:49;13.48;;;9.77;;
78308;SDS011;67566;42.022;21.356;2023-04-21T01:28:19;12.63;;;11.05;;
78308;SDS011;67566;42.022;21.356;2023-04-21T01:30:46;13.15;;;10.73;;
78308;SDS011;67566;42.022;21.356;2023-04-21T01:33:11;15.77;;;11.90;;
78308;SDS011;67566;42.022;21.356;2023-04-21T01:35:37;14.38;;;11.00;;
78308;SDS011;67566;42.022;21.356;2023-04-21T01:38:02;12.88;;;10.10;;
78308;SDS011;67566;42.022;21.356;2023-04-21T01:40:28;18.55;;;13.35;;
78308;SDS011;67566;42.022;21.356;2023-04-21T01:42:53;19.55;;;13.63;;
78308;SDS011;67566;42.022;21.356;2023-04-21T01:45:19;14.25;;;11.05;;
78308;SDS011;67566;42.022;21.356;2023-04-21T01:47:45;14.18;;;10.32;;
78308;SDS011;67566;42.022;21.356;2023-04-21T01:50:10;15.10;;;10.15;;
78308;SDS011;67566;42.022;21.356;2023-04-21T01:52:36;12.13;;;9.65;;
78308;SDS011;67566;42.022;21.356;2023-04-21T01:55:01;13.52;;;9.73;;
78308;SDS011;67566;42.022;21.356;2023-04-21T01:57:27;13.32;;;9.50;;
78308;SDS011;67566;42.022;21.356;2023-04-21T01:59:52;13.27;;;10.25;;
78308;SDS011;67566;42.022;21.356;2023-04-21T02:02:18;12.10;;;9.50;;
78308;SDS011;67566;42.022;21.356;2023-04-21T02:04:43;11.02;;;8.63;;
78308;SDS011;67566;42.022;21.356;2023-04-21T02:07:09;15.60;;;9.77;;
78308;SDS011;67566;42.022;21.356;2023-04-21T02:09:34;13.32;;;8.57;;
78308;SDS011;67566;42.022;21.356;2023-04-21T02:12:00;10.45;;;8.80;;
78308;SDS011;67566;42.022;21.356;2023-04-21T02:14:26;10.73;;;8.88;;
78308;SDS011;67566;42.022;21.356;2023-04-21T02:16:51;13.07;;;9.50;;
78308;SDS011;67566;42.022;21.356;2023-04-21T02:19:17;10.90;;;8.75;;
78308;SDS011;67566;42.022;21.356;2023-04-21T02:21:42;11.57;;;8.93;;
78308;SDS011;67566;42.022;21.356;2023-04-21T02:24:08;12.10;;;8.95;;
78308;SDS011;67566;42.022;21.356;2023-04-21T02:26:33;12.73;;;8.48;;
78308;SDS011;67566;42.022;21.356;2023-04-21T02:28:59;13.07;;;9.10;;
78308;SDS011;67566;42.022;21.356;2023-04-21T02:31:24;14.40;;;9.18;;
78308;SDS011;67566;42.022;21.356;2023-04-21T02:33:50;12.45;;;9.32;;
78308;SDS011;67566;42.022;21.356;2023-04-21T02:36:15;12.38;;;9.60;;
78308;SDS011;67566;42.022;21.356;2023-04-21T02:38:41;19.65;;;11.15;;
78308;SDS011;67566;42.022;21.356;2023-04-21T02:41:06;13.13;;;10.20;;
78308;SDS011;67566;42.022;21.356;2023-04-21T02:43:32;11.88;;;8.23;;
78308;SDS011;67566;42.022;21.356;2023-04-21T02:45:57;12.25;;;9.48;;
78308;SDS011;67566;42.022;21.356;2023-04-21T02:48:23;15.07;;;9.60;;
78308;SDS011;67566;42.022;21.356;2023-04-21T02:50:49;13.38;;;10.23;;
78308;SDS011;67566;42.022;21.356;2023-04-21T02:53:15;22.27;;;12.35;;
78308;SDS011;67566;42.022;21.356;2023-04-21T02:55:41;13.25;;;10.30;;
78308;SDS011;67566;42.022;21.356;2023-04-21T02:58:06;16.55;;;9.70;;
78308;SDS011;67566;42.022;21.356;2023-04-21T03:00:32;16.73;;;10.57;;
78308;SDS011;67566;42.022;21.356;2023-04-21T03:02:57;13.65;;;10.30;;
78308;SDS011;67566;42.022;21.356;2023-04-21T03:05:23;13.20;;;10.55;;
78308;SDS011;67566;42.022;21.356;2023-04-21T03:07:48;13.40;;;10.27;;
78308;SDS011;67566;42.022;21.356;2023-04-21T03:10:14;15.15;;;9.95;;
78308;SDS011;67566;42.022;21.356;2023-04-21T03:12:40;15.10;;;10.77;;
78308;SDS011;67566;42.022;21.356;2023-04-21T03:15:06;11.70;;;8.70;;
78308;SDS011;67566;42.022;21.356;2023-04-21T03:17:31;15.05;;;11.02;;
78308;SDS011;67566;42.022;21.356;2023-04-21T03:19:57;16.83;;;11.70;;
78308;SDS011;67566;42.022;21.356;2023-04-21T03:22:22;12.93;;;9.35;;
78308;SDS011;67566;42.022;21.356;2023-04-21T03:24:47;15.50;;;11.00;;
78308;SDS011;67566;42.022;21.356;2023-04-21T03:27:13;31.48;;;14.38;;
78308;SDS011;67566;42.022;21.356;2023-04-21T03:29:38;26.38;;;13.40;;
78308;SDS011;67566;42.022;21.356;2023-04-21T03:32:04;18.65;;;11.48;;
78308;SDS011;67566;42.022;21.356;2023-04-21T03:34:29;14.18;;;11.00;;
78308;SDS011;67566;42.022;21.356;2023-04-21T03:36:55;15.15;;;11.50;;
78308;SDS011;67566;42.022;21.356;2023-04-21T03:39:20;13.73;;;9.82;;
78308;SDS011;67566;42.022;21.356;2023-04-21T03:41:46;14.23;;;9.70;;
78308;SDS011;67566;42.022;21.356;2023-04-21T03:44:12;14.63;;;10.75;;
78308;SDS011;67566;42.022;21.356;2023-04-21T03:46:37;13.50;;;10.60;;
78308;SDS011;67566;42.022;21.356;2023-04-21T03:49:03;11.85;;;8.75;;
78308;SDS011;67566;42.022;21.356;2023-04-21T03:51:28;11.27;;;8.93;;
78308;SDS011;67566;42.022;21.356;2023-04-21T03:53:56;14.02;;;9.27;;
78308;SDS011;67566;42.022;21.356;2023-04-21T03:56:21;11.80;;;9.60;;
78308;SDS011;67566;42.022;21.356;2023-04-21T03:58:47;12.88;;;9.95;;
78308;SDS011;67566;42.022;21.356;2023-04-21T04:01:13;16.70;;;10.73;;
78308;SDS011;67566;42.022;21.356;2023-04-21T04:03:39;30.02;;;17.20;;
78308;SDS011;67566;42.022;21.356;2023-04-21T04:06:05;25.15;;;16.27;;
78308;SDS011;67566;42.022;21.356;2023-04-21T04:08:30;16.63;;;11.50;;
78308;SDS011;67566;42.022;21.356;2023-04-21T04:10:56;14.05;;;10.07;;
78308;SDS011;67566;42.022;21.356;2023-04-21T04:13:22;14.45;;;9.77;;
78308;SDS011;67566;42.022;21.356;2023-04-21T04:15:48;11.80;;;9.57;;
78308;SDS011;67566;42.022;21.356;2023-04-21T04:18:14;12.65;;;9.98;;
78308;SDS011;67566;42.022;21.356;2023-04-21T04:20:39;46.95;;;31.70;;
78308;SDS011;67566;42.022;21.356;2023-04-21T04:23:05;37.10;;;24.35;;
78308;SDS011;67566;42.022;21.356;2023-04-21T04:25:30;29.23;;;19.20;;
78308;SDS011;67566;42.022;21.356;2023-04-21T04:27:57;16.52;;;12.70;;
78308;SDS011;67566;42.022;21.356;2023-04-21T04:30:22;21.75;;;14.82;;
78308;SDS011;67566;42.022;21.356;2023-04-21T04:32:51;17.70;;;13.55;;
78308;SDS011;67566;42.022;21.356;2023-04-21T04:35:17;15.23;;;11.05;;
78308;SDS011;67566;42.022;21.356;2023-04-21T04:37:43;12.30;;;9.77;;
78308;SDS011;67566;42.022;21.356;2023-04-21T04:40:09;12.55;;;9.93;;
78308;SDS011;67566;42.022;21.356;2023-04-21T04:42:36;13.18;;;9.90;;
78308;SDS011;67566;42.022;21.356;2023-04-21T04:45:03;11.50;;;9.52;;
78308;SDS011;67566;42.022;21.356;2023-04-21T04:47:30;13.77;;;10.10;;
78308;SDS011;67566;42.022;21.356;2023-04-21T04:49:55;15.18;;;10.50;;
78308;SDS011;67566;42.022;21.356;2023-04-21T04:52:21;13.15;;;9.88;;
78308;SDS011;67566;42.022;21.356;2023-04-21T04:54:46;13.48;;;9.57;;
78308;SDS011;67566;42.022;21.356;2023-04-21T04:57:12;12.45;;;8.57;;
78308;SDS011;67566;42.022;21.356;2023-04-21T04:59:37;12.88;;;9.20;;
78308;SDS011;67566;42.022;21.356;2023-04-21T05:02:03;12.00;;;9.18;;
78308;SDS011;67566;42.022;21.356;2023-04-21T05:04:28;10.00;;;7.93;;
78308;SDS011;67566;42.022;21.356;2023-04-21T05:06:53;16.27;;;9.50;;
78308;SDS011;67566;42.022;21.356;2023-04-21T05:09:19;9.93;;;8.25;;
78308;SDS011;67566;42.022;21.356;2023-04-21T05:11:45;11.02;;;9.43;;
78308;SDS011;67566;42.022;21.356;2023-04-21T05:14:10;12.07;;;8.55;;
78308;SDS011;67566;42.022;21.356;2023-04-21T05:16:35;12.13;;;8.95;;
78308;SDS011;67566;42.022;21.356;2023-04-21T05:19:01;9.23;;;8.10;;
78308;SDS011;67566;42.022;21.356;2023-04-21T05:21:27;10.73;;;8.52;;
78308;SDS011;67566;42.022;21.356;2023-04-21T05:23:56;10.55;;;8.20;;
78308;SDS011;67566;42.022;21.356;2023-04-21T05:28:48;20.73;;;16.52;;
78308;SDS011;67566;42.022;21.356;2023-04-21T05:31:14;15.85;;;12.52;;
78308;SDS011;67566;42.022;21.356;2023-04-21T05:33:40;11.43;;;10.25;;
78308;SDS011;67566;42.022;21.356;2023-04-21T05:36:06;11.63;;;9.90;;
78308;SDS011;67566;42.022;21.356;2023-04-21T05:38:33;12.60;;;10.93;;
78308;SDS011;67566;42.022;21.356;2023-04-21T05:40:58;13.93;;;11.07;;
78308;SDS011;67566;42.022;21.356;2023-04-21T05:43:24;13.80;;;9.63;;
78308;SDS011;67566;42.022;21.356;2023-04-21T05:45:49;11.75;;;8.93;;
78308;SDS011;67566;42.022;21.356;2023-04-21T05:48:15;34.55;;;25.65;;
78308;SDS011;67566;42.022;21.356;2023-04-21T05:50:40;15.02;;;12.15;;
78308;SDS011;67566;42.022;21.356;2023-04-21T05:53:06;13.38;;;11.65;;
78308;SDS011;67566;42.022;21.356;2023-04-21T05:55:33;10.88;;;9.52;;
78308;SDS011;67566;42.022;21.356;2023-04-21T05:57:59;10.25;;;8.63;;
78308;SDS011;67566;42.022;21.356;2023-04-21T06:00:24;10.35;;;9.38;;
78308;SDS011;67566;42.022;21.356;2023-04-21T06:02:50;11.05;;;9.70;;
78308;SDS011;67566;42.022;21.356;2023-04-21T06:05:15;8.90;;;7.65;;
78308;SDS011;67566;42.022;21.356;2023-04-21T06:07:41;10.02;;;8.45;;
78308;SDS011;67566;42.022;21.356;2023-04-21T06:10:06;10.95;;;8.65;;
78308;SDS011;67566;42.022;21.356;2023-04-21T06:12:32;9.55;;;8.10;;
78308;SDS011;67566;42.022;21.356;2023-04-21T06:14:58;9.45;;;8.23;;
78308;SDS011;67566;42.022;21.356;2023-04-21T06:17:23;9.55;;;8.52;;
78308;SDS011;67566;42.022;21.356;2023-04-21T06:19:49;7.80;;;6.63;;
78308;SDS011;67566;42.022;21.356;2023-04-21T06:22:20;8.98;;;6.88;;
78308;SDS011;67566;42.022;21.356;2023-04-21T06:24:46;8.18;;;7.38;;
78308;SDS011;67566;42.022;21.356;2023-04-21T06:27:11;7.00;;;6.30;;
78308;SDS011;67566;42.022;21.356;2023-04-21T06:29:37;7.65;;;6.88;;
78308;SDS011;67566;42.022;21.356;2023-04-21T06:32:03;7.50;;;6.72;;
78308;SDS011;67566;42.022;21.356;2023-04-21T06:34:29;7.40;;;6.22;;
78308;SDS011;67566;42.022;21.356;2023-04-21T06:36:54;7.15;;;5.65;;
78308;SDS011;67566;42.022;21.356;2023-04-21T06:39:20;9.70;;;6.57;;
78308;SDS011;67566;42.022;21.356;2023-04-21T06:41:46;9.73;;;6.53;;
78308;SDS011;67566;42.022;21.356;2023-04-21T06:44:11;9.23;;;6.75;;
78308;SDS011;67566;42.022;21.356;2023-04-21T06:49:08;8.40;;;6.10;;
78308;SDS011;67566;42.022;21.356;2023-04-21T06:51:35;6.65;;;5.95;;
78308;SDS011;67566;42.022;21.356;2023-04-21T06:54:01;11.13;;;7.13;;
78308;SDS011;67566;42.022;21.356;2023-04-21T06:56:27;9.15;;;6.68;;
78308;SDS011;67566;42.022;21.356;2023-04-21T06:58:53;6.95;;;6.00;;
78308;SDS011;67566;42.022;21.356;2023-04-21T07:01:19;8.50;;;6.55;;
78308;SDS011;67566;42.022;21.356;2023-04-21T07:03:45;9.10;;;7.28;;
78308;SDS011;67566;42.022;21.356;2023-04-21T07:06:10;8.52;;;6.47;;
78308;SDS011;67566;42.022;21.356;2023-04-21T07:08:37;8.95;;;6.05;;
78308;SDS011;67566;42.022;21.356;2023-04-21T07:11:03;7.82;;;6.80;;
78308;SDS011;67566;42.022;21.356;2023-04-21T07:13:28;10.40;;;6.90;;
78308;SDS011;67566;42.022;21.356;2023-04-21T07:15:54;8.40;;;6.25;;
78308;SDS011;67566;42.022;21.356;2023-04-21T07:18:20;9.38;;;5.72;;
78308;SDS011;67566;42.022;21.356;2023-04-21T07:20:45;8.50;;;6.10;;
78308;SDS011;67566;42.022;21.356;2023-04-21T07:23:11;9.93;;;6.25;;
78308;SDS011;67566;42.022;21.356;2023-04-21T07:25:36;7.68;;;6.55;;
78308;SDS011;67566;42.022;21.356;2023-04-21T07:28:02;7.68;;;6.68;;
78308;SDS011;67566;42.022;21.356;2023-04-21T07:30:28;8.52;;;6.88;;
78308;SDS011;67566;42.022;21.356;2023-04-21T07:32:54;8.50;;;7.13;;
78308;SDS011;67566;42.022;21.356;2023-04-21T07:35:20;7.32;;;6.30;;
78308;SDS011;67566;42.022;21.356;2023-04-21T07:37:45;9.25;;;6.30;;
78308;SDS011;67566;42.022;21.356;2023-04-21T07:40:11;10.07;;;7.07;;
78308;SDS011;67566;42.022;21.356;2023-04-21T07:42:38;8.63;;;7.55;;
78308;SDS011;67566;42.022;21.356;2023-04-21T07:45:03;9.77;;;7.72;;
78308;SDS011;67566;42.022;21.356;2023-04-21T07:47:30;11.23;;;7.72;;
78308;SDS011;67566;42.022;21.356;2023-04-21T07:49:56;9.38;;;8.25;;
78308;SDS011;67566;42.022;21.356;2023-04-21T07:52:21;8.13;;;6.25;;
78308;SDS011;67566;42.022;21.356;2023-04-21T07:54:47;8.35;;;7.10;;
78308;SDS011;67566;42.022;21.356;2023-04-21T07:57:12;11.82;;;7.55;;
78308;SDS011;67566;42.022;21.356;2023-04-21T07:59:38;8.00;;;6.40;;
78308;SDS011;67566;42.022;21.356;2023-04-21T08:02:04;7.15;;;6.35;;
78308;SDS011;67566;42.022;21.356;2023-04-21T08:04:30;9.18;;;6.78;;
78308;SDS011;67566;42.022;21.356;2023-04-21T08:06:55;11.07;;;6.55;;
78308;SDS011;67566;42.022;21.356;2023-04-21T08:09:21;9.35;;;7.32;;
78308;SDS011;67566;42.022;21.356;2023-04-21T08:11:46;12.95;;;8.43;;
78308;SDS011;67566;42.022;21.356;2023-04-21T08:14:12;8.63;;;7.07;;
78308;SDS011;67566;42.022;21.356;2023-04-21T08:16:38;8.52;;;7.65;;
78308;SDS011;67566;42.022;21.356;2023-04-21T08:19:06;8.93;;;6.65;;
78308;SDS011;67566;42.022;21.356;2023-04-21T08:21:32;9.50;;;7.18;;
78308;SDS011;67566;42.022;21.356;2023-04-21T08:23:58;9.43;;;7.10;;
78308;SDS011;67566;42.022;21.356;2023-04-21T08:26:26;10.88;;;7.25;;
78308;SDS011;67566;42.022;21.356;2023-04-21T08:28:54;8.93;;;7.07;;
78308;SDS011;67566;42.022;21.356;2023-04-21T08:31:21;11.82;;;8.05;;
78308;SDS011;67566;42.022;21.356;2023-04-21T08:33:46;12.38;;;8.05;;
78308;SDS011;67566;42.022;21.356;2023-04-21T08:36:12;11.20;;;7.40;;
78308;SDS011;67566;42.022;21.356;2023-04-21T08:38:38;9.48;;;8.20;;
78308;SDS011;67566;42.022;21.356;2023-04-21T08:41:04;9.32;;;8.30;;
78308;SDS011;67566;42.022;21.356;2023-04-21T08:43:31;11.63;;;9.15;;
78308;SDS011;67566;42.022;21.356;2023-04-21T08:45:57;13.27;;;9.05;;
78308;SDS011;67566;42.022;21.356;2023-04-21T08:48:23;9.88;;;8.23;;
78308;SDS011;67566;42.022;21.356;2023-04-21T08:50:52;9.50;;;7.07;;
78308;SDS011;67566;42.022;21.356;2023-04-21T08:53:18;15.07;;;5.65;;
78308;SDS011;67566;42.022;21.356;2023-04-21T08:55:44;7.03;;;5.50;;
78308;SDS011;67566;42.022;21.356;2023-04-21T08:58:15;8.02;;;6.25;;
78308;SDS011;67566;42.022;21.356;2023-04-21T09:00:40;6.85;;;5.50;;
78308;SDS011;67566;42.022;21.356;2023-04-21T09:03:06;8.20;;;7.32;;
78308;SDS011;67566;42.022;21.356;2023-04-21T09:05:32;8.55;;;6.43;;
78308;SDS011;67566;42.022;21.356;2023-04-21T09:08:09;7.13;;;6.22;;
78308;SDS011;67566;42.022;21.356;2023-04-21T09:10:42;7.57;;;5.47;;
78308;SDS011;67566;42.022;21.356;2023-04-21T09:13:12;10.88;;;6.60;;
78308;SDS011;67566;42.022;21.356;2023-04-21T09:15:39;8.93;;;7.80;;
78308;SDS011;67566;42.022;21.356;2023-04-21T09:18:09;7.85;;;6.30;;
78308;SDS011;67566;42.022;21.356;2023-04-21T09:20:37;10.98;;;6.97;;
78308;SDS011;67566;42.022;21.356;2023-04-21T09:23:06;10.65;;;8.25;;
78308;SDS011;67566;42.022;21.356;2023-04-21T09:25:32;8.60;;;7.07;;
78308;SDS011;67566;42.022;21.356;2023-04-21T09:28:00;7.88;;;6.20;;
78308;SDS011;67566;42.022;21.356;2023-04-21T09:30:26;9.20;;;7.43;;
78308;SDS011;67566;42.022;21.356;2023-04-21T09:32:54;9.10;;;7.47;;
78308;SDS011;67566;42.022;21.356;2023-04-21T09:35:21;8.48;;;7.30;;
78308;SDS011;67566;42.022;21.356;2023-04-21T09:37:47;8.20;;;6.80;;
78308;SDS011;67566;42.022;21.356;2023-04-21T09:40:13;11.15;;;8.88;;
78308;SDS011;67566;42.022;21.356;2023-04-21T09:42:39;8.48;;;7.32;;
78308;SDS011;67566;42.022;21.356;2023-04-21T09:45:05;8.23;;;7.32;;
78308;SDS011;67566;42.022;21.356;2023-04-21T09:47:37;9.48;;;8.48;;
78308;SDS011;67566;42.022;21.356;2023-04-21T09:50:06;10.10;;;8.30;;
78308;SDS011;67566;42.022;21.356;2023-04-21T09:52:32;9.45;;;7.63;;
78308;SDS011;67566;42.022;21.356;2023-04-21T09:54:59;10.43;;;8.02;;
78308;SDS011;67566;42.022;21.356;2023-04-21T09:57:28;8.50;;;7.57;;
78308;SDS011;67566;42.022;21.356;2023-04-21T09:59:59;9.73;;;8.38;;
78308;SDS011;67566;42.022;21.356;2023-04-21T10:02:29;9.00;;;7.40;;
78308;SDS011;67566;42.022;21.356;2023-04-21T10:04:56;6.60;;;6.00;;
78308;SDS011;67566;42.022;21.356;2023-04-21T10:07:22;10.05;;;8.18;;
78308;SDS011;67566;42.022;21.356;2023-04-21T10:09:51;9.52;;;6.55;;
78308;SDS011;67566;42.022;21.356;2023-04-21T10:12:20;7.93;;;5.97;;
78308;SDS011;67566;42.022;21.356;2023-04-21T10:15:04;12.50;;;11.30;;
78308;SDS011;67566;42.022;21.356;2023-04-21T10:17:33;8.23;;;6.97;;
78308;SDS011;67566;42.022;21.356;2023-04-21T10:20:03;9.07;;;7.00;;
78308;SDS011;67566;42.022;21.356;2023-04-21T10:22:33;9.43;;;6.80;;
78308;SDS011;67566;42.022;21.356;2023-04-21T10:25:00;7.68;;;6.55;;
78308;SDS011;67566;42.022;21.356;2023-04-21T10:27:34;8.68;;;6.15;;
78308;SDS011;67566;42.022;21.356;2023-04-21T10:30:16;9.82;;;7.20;;
78308;SDS011;67566;42.022;21.356;2023-04-21T10:32:42;10.05;;;7.32;;
78308;SDS011;67566;42.022;21.356;2023-04-21T10:35:12;8.43;;;7.22;;
78308;SDS011;67566;42.022;21.356;2023-04-21T10:38:05;8.55;;;6.75;;
78308;SDS011;67566;42.022;21.356;2023-04-21T10:40:34;9.80;;;7.15;;
78308;SDS011;67566;42.022;21.356;2023-04-21T10:45:29;11.68;;;7.80;;
78308;SDS011;67566;42.022;21.356;2023-04-21T10:47:57;10.32;;;7.35;;
78308;SDS011;67566;42.022;21.356;2023-04-21T10:50:28;8.63;;;7.57;;
78308;SDS011;67566;42.022;21.356;2023-04-21T10:53:06;8.80;;;6.97;;
78308;SDS011;67566;42.022;21.356;2023-04-21T10:55:33;8.57;;;7.15;;
78308;SDS011;67566;42.022;21.356;2023-04-21T10:58:05;12.40;;;7.03;;
78308;SDS011;67566;42.022;21.356;2023-04-21T11:00:33;9.15;;;8.02;;
78308;SDS011;67566;42.022;21.356;2023-04-21T11:03:01;8.65;;;7.75;;
78308;SDS011;67566;42.022;21.356;2023-04-21T11:05:32;9.30;;;7.38;;
78308;SDS011;67566;42.022;21.356;2023-04-21T11:08:12;9.35;;;7.28;;
78308;SDS011;67566;42.022;21.356;2023-04-21T11:10:52;8.50;;;7.10;;
78308;SDS011;67566;42.022;21.356;2023-04-21T11:13:22;10.05;;;6.88;;
78308;SDS011;67566;42.022;21.356;2023-04-21T11:15:58;9.77;;;7.47;;
78308;SDS011;67566;42.022;21.356;2023-04-21T11:18:39;6.80;;;6.10;;
78308;SDS011;67566;42.022;21.356;2023-04-21T11:21:12;7.13;;;6.38;;
78308;SDS011;67566;42.022;21.356;2023-04-21T11:23:47;10.52;;;6.38;;
78308;SDS011;67566;42.022;21.356;2023-04-21T11:26:16;8.18;;;6.75;;
78308;SDS011;67566;42.022;21.356;2023-04-21T11:28:46;7.18;;;6.45;;
78308;SDS011;67566;42.022;21.356;2023-04-21T11:31:11;7.60;;;6.88;;
78308;SDS011;67566;42.022;21.356;2023-04-21T11:33:38;9.45;;;6.88;;
78308;SDS011;67566;42.022;21.356;2023-04-21T11:36:04;7.35;;;6.60;;
78308;SDS011;67566;42.022;21.356;2023-04-21T11:38:37;10.20;;;7.57;;
78308;SDS011;67566;42.022;21.356;2023-04-21T11:41:04;9.00;;;7.60;;
78308;SDS011;67566;42.022;21.356;2023-04-21T11:43:29;9.52;;;7.03;;
78308;SDS011;67566;42.022;21.356;2023-04-21T11:46:09;8.55;;;6.30;;
78308;SDS011;67566;42.022;21.356;2023-04-21T11:48:35;6.82;;;6.13;;
78308;SDS011;67566;42.022;21.356;2023-04-21T11:51:01;7.32;;;6.53;;
78308;SDS011;67566;42.022;21.356;2023-04-21T11:53:27;10.93;;;7.10;;
78308;SDS011;67566;42.022;21.356;2023-04-21T11:55:53;9.52;;;6.85;;
78308;SDS011;67566;42.022;21.356;2023-04-21T11:58:20;9.23;;;6.25;;
78308;SDS011;67566;42.022;21.356;2023-04-21T12:00:46;8.63;;;6.63;;
78308;SDS011;67566;42.022;21.356;2023-04-21T12:03:12;8.82;;;7.35;;
78308;SDS011;67566;42.022;21.356;2023-04-21T12:05:38;9.48;;;7.50;;
78308;SDS011;67566;42.022;21.356;2023-04-21T12:08:03;9.90;;;6.97;;
78308;SDS011;67566;42.022;21.356;2023-04-21T12:10:43;9.27;;;8.35;;
78308;SDS011;67566;42.022;21.356;2023-04-21T12:15:35;10.73;;;8.25;;
78308;SDS011;67566;42.022;21.356;2023-04-21T12:18:00;11.75;;;8.82;;
78308;SDS011;67566;42.022;21.356;2023-04-21T12:20:27;9.63;;;7.97;;
78308;SDS011;67566;42.022;21.356;2023-04-21T12:22:53;8.68;;;6.95;;
78308;SDS011;67566;42.022;21.356;2023-04-21T12:25:20;8.95;;;7.40;;
78308;SDS011;67566;42.022;21.356;2023-04-21T12:27:49;10.20;;;8.05;;
78308;SDS011;67566;42.022;21.356;2023-04-21T12:30:16;9.90;;;6.88;;
78308;SDS011;67566;42.022;21.356;2023-04-21T12:32:42;11.68;;;7.68;;
78308;SDS011;67566;42.022;21.356;2023-04-21T12:35:08;7.50;;;6.65;;
78308;SDS011;67566;42.022;21.356;2023-04-21T12:37:34;8.05;;;7.10;;
78308;SDS011;67566;42.022;21.356;2023-04-21T12:40:00;10.88;;;8.13;;
78308;SDS011;67566;42.022;21.356;2023-04-21T12:42:26;10.60;;;8.15;;
78308;SDS011;67566;42.022;21.356;2023-04-21T12:44:51;9.68;;;8.23;;
78308;SDS011;67566;42.022;21.356;2023-04-21T12:47:16;12.32;;;8.23;;
78308;SDS011;67566;42.022;21.356;2023-04-21T12:49:42;11.15;;;8.18;;
78308;SDS011;67566;42.022;21.356;2023-04-21T12:52:08;9.57;;;7.72;;
78308;SDS011;67566;42.022;21.356;2023-04-21T12:54:33;9.02;;;7.35;;
78308;SDS011;67566;42.022;21.356;2023-04-21T12:56:59;8.23;;;7.43;;
78308;SDS011;67566;42.022;21.356;2023-04-21T12:59:25;11.27;;;7.55;;
78308;SDS011;67566;42.022;21.356;2023-04-21T13:01:51;9.23;;;7.95;;
78308;SDS011;67566;42.022;21.356;2023-04-21T13:04:16;11.70;;;8.13;;
78308;SDS011;67566;42.022;21.356;2023-04-21T13:06:42;9.80;;;8.80;;
78308;SDS011;67566;42.022;21.356;2023-04-21T13:09:07;10.63;;;8.40;;
78308;SDS011;67566;42.022;21.356;2023-04-21T13:11:33;14.32;;;10.75;;
78308;SDS011;67566;42.022;21.356;2023-04-21T13:13:58;13.43;;;11.18;;
78308;SDS011;67566;42.022;21.356;2023-04-21T13:16:24;17.33;;;12.02;;
78308;SDS011;67566;42.022;21.356;2023-04-21T13:18:49;14.05;;;10.15;;
78308;SDS011;67566;42.022;21.356;2023-04-21T13:21:15;8.90;;;7.85;;
78308;SDS011;67566;42.022;21.356;2023-04-21T13:23:40;10.35;;;7.60;;
78308;SDS011;67566;42.022;21.356;2023-04-21T13:26:06;7.75;;;6.95;;
78308;SDS011;67566;42.022;21.356;2023-04-21T13:28:32;9.30;;;6.55;;
78308;SDS011;67566;42.022;21.356;2023-04-21T13:30:57;8.47;;;7.27;;
78308;SDS011;67566;42.022;21.356;2023-04-21T13:33:23;7.10;;;6.40;;
78308;SDS011;67566;42.022;21.356;2023-04-21T13:35:49;8.27;;;6.78;;
78308;SDS011;67566;42.022;21.356;2023-04-21T13:38:15;10.63;;;6.18;;
78308;SDS011;67566;42.022;21.356;2023-04-21T13:40:41;7.57;;;6.45;;
78308;SDS011;67566;42.022;21.356;2023-04-21T13:43:07;9.77;;;7.15;;
78308;SDS011;67566;42.022;21.356;2023-04-21T13:45:32;11.60;;;8.88;;
78308;SDS011;67566;42.022;21.356;2023-04-21T13:47:58;10.55;;;6.82;;
78308;SDS011;67566;42.022;21.356;2023-04-21T13:50:24;9.50;;;7.22;;
78308;SDS011;67566;42.022;21.356;2023-04-21T13:52:49;9.93;;;8.23;;
78308;SDS011;67566;42.022;21.356;2023-04-21T13:55:15;7.75;;;6.72;;
78308;SDS011;67566;42.022;21.356;2023-04-21T13:57:40;10.10;;;7.13;;
78308;SDS011;67566;42.022;21.356;2023-04-21T14:00:06;10.63;;;7.97;;
78308;SDS011;67566;42.022;21.356;2023-04-21T14:02:36;10.55;;;9.30;;
78308;SDS011;67566;42.022;21.356;2023-04-21T14:05:02;11.95;;;8.35;;
78308;SDS011;67566;42.022;21.356;2023-04-21T14:07:28;11.55;;;7.00;;
78308;SDS011;67566;42.022;21.356;2023-04-21T14:09:54;9.27;;;7.28;;
78308;SDS011;67566;42.022;21.356;2023-04-21T14:12:20;9.05;;;6.60;;
78308;SDS011;67566;42.022;21.356;2023-04-21T14:14:45;8.30;;;6.07;;
78308;SDS011;67566;42.022;21.356;2023-04-21T14:17:11;7.90;;;7.10;;
78308;SDS011;67566;42.022;21.356;2023-04-21T14:19:37;8.35;;;7.18;;
78308;SDS011;67566;42.022;21.356;2023-04-21T14:22:03;9.02;;;7.68;;
78308;SDS011;67566;42.022;21.356;2023-04-21T14:24:28;6.88;;;6.28;;
78308;SDS011;67566;42.022;21.356;2023-04-21T14:26:56;7.03;;;5.63;;
78308;SDS011;67566;42.022;21.356;2023-04-21T14:29:21;8.00;;;6.65;;
78308;SDS011;67566;42.022;21.356;2023-04-21T14:31:47;8.20;;;7.32;;
78308;SDS011;67566;42.022;21.356;2023-04-21T14:34:14;7.00;;;5.95;;